Time;durP1;ratioP1;P1;durP2;ratioP2;P2;SDS_P1;SDS_P2;PMS_P1;PMS_P2;Temp;Humidity;BMP_temperature;BMP_pressure;BME280_temperature;BME280_humidity;BME280_pressure;Samples;Min_cycle;Max_cycle;Signal;HPM_P1;HPM_P2
2023/12/03 00:02:25;;;;;;;27.60;12.40;;;;;;;-128.00;-1.00;-1.00;100379;1282;1046325;-31
2023/12/03 00:04:51;;;;;;;19.40;9.10;;;;;;;-128.00;-1.00;-1.00;100394;1279;1004593;-32
2023/12/03 00:07:17;;;;;;;23.10;11.00;;;;;;;-128.00;-1.00;-1.00;100495;1279;1004477;-31
2023/12/03 00:09:44;;;;;;;29.60;12.60;;;;;;;-128.00;-1.00;-1.00;100550;1279;1004966;-31
2023/12/03 00:12:10;;;;;;;24.30;10.50;;;;;;;-128.00;-1.00;-1.00;100389;1279;1005537;-31
2023/12/03 00:14:36;;;;;;;25.20;11.40;;;;;;;-128.00;-1.00;-1.00;100434;1279;1004482;-32
2023/12/03 00:17:01;;;;;;;23.90;11.30;;;;;;;-128.00;-1.00;-1.00;100241;1279;1047412;-32
2023/12/03 00:19:27;;;;;;;21.20;9.60;;;;;;;-128.00;-1.00;-1.00;100415;1279;1005263;-34
2023/12/03 00:21:53;;;;;;;25.00;11.60;;;;;;;-128.00;-1.00;-1.00;100446;1279;1005398;-33
2023/12/03 00:24:19;;;;;;;20.00;9.20;;;;;;;-128.00;-1.00;-1.00;100191;1279;1014826;-32
2023/12/03 00:26:45;;;;;;;17.40;10.00;;;;;;;-128.00;-1.00;-1.00;100414;1279;1003443;-34
2023/12/03 00:29:10;;;;;;;23.00;11.00;;;;;;;-128.00;-1.00;-1.00;100387;1279;1004855;-33
2023/12/03 00:31:36;;;;;;;17.40;7.90;;;;;;;-128.00;-1.00;-1.00;100572;1279;1056608;-31
2023/12/03 00:34:03;;;;;;;26.80;13.40;;;;;;;-128.00;-1.00;-1.00;100097;1279;1005339;-33
2023/12/03 00:36:29;;;;;;;23.00;11.10;;;;;;;-128.00;-1.00;-1.00;100418;1279;1003878;-33
2023/12/03 00:38:55;;;;;;;22.60;11.90;;;;;;;-128.00;-1.00;-1.00;100419;1284;1004556;-31
2023/12/03 00:41:20;;;;;;;25.20;12.10;;;;;;;-128.00;-1.00;-1.00;100533;1279;1004616;-33
2023/12/03 00:43:47;;;;;;;15.80;9.00;;;;;;;-128.00;-1.00;-1.00;100365;1285;1057014;-33
2023/12/03 00:46:16;;;;;;;20.20;8.90;;;;;;;-128.00;-1.00;-1.00;100658;1284;1002797;-33
2023/12/03 00:48:42;;;;;;;26.10;10.60;;;;;;;-128.00;-1.00;-1.00;100532;1279;1002781;-32
2023/12/03 00:51:09;;;;;;;18.40;10.90;;;;;;;-128.00;-1.00;-1.00;100403;1282;1003732;-33
2023/12/03 00:53:35;;;;;;;21.10;9.50;;;;;;;-128.00;-1.00;-1.00;100416;1279;1004684;-32
2023/12/03 00:56:00;;;;;;;23.20;12.40;;;;;;;-128.00;-1.00;-1.00;100376;1279;1003505;-29
2023/12/03 00:58:26;;;;;;;24.70;10.60;;;;;;;-128.00;-1.00;-1.00;100450;1283;1059893;-31
2023/12/03 01:00:52;;;;;;;19.20;8.90;;;;;;;-128.00;-1.00;-1.00;100407;1279;1005060;-31
2023/12/03 01:03:18;;;;;;;22.10;10.20;;;;;;;-128.00;-1.00;-1.00;100507;1283;1004121;-31
2023/12/03 01:05:44;;;;;;;21.30;11.30;;;;;;;-128.00;-1.00;-1.00;100532;1278;1058923;-31
2023/12/03 01:08:10;;;;;;;20.00;9.90;;;;;;;-128.00;-1.00;-1.00;100479;1280;1004299;-31
2023/12/03 01:10:36;;;;;;;;;;;;;;;-128.00;-1.00;-1.00;100630;1279;1004217;-35
2023/12/03 01:13:02;;;;;;;17.80;9.30;;;;;;;-128.00;-1.00;-1.00;100620;1279;1003506;-32
2023/12/03 01:15:28;;;;;;;20.90;9.90;;;;;;;-128.00;-1.00;-1.00;100626;1279;1045700;-33
2023/12/03 01:17:54;;;;;;;23.80;10.20;;;;;;;-128.00;-1.00;-1.00;100677;1283;1002677;-31
2023/12/03 01:20:20;;;;;;;19.10;7.40;;;;;;;-128.00;-1.00;-1.00;100607;1279;1003032;-34
2023/12/03 01:22:46;;;;;;;;;;;;;;;-128.00;-1.00;-1.00;100554;1279;1003071;-31
2023/12/03 01:25:12;;;;;;;19.40;9.60;;;;;;;-128.00;-1.00;-1.00;100709;1282;1038846;-31
2023/12/03 01:27:38;;;;;;;17.20;10.20;;;;;;;-128.00;-1.00;-1.00;100694;1283;1003918;-31
2023/12/03 01:30:04;;;;;;;;;;;;;;;-128.00;-1.00;-1.00;100758;1279;1003444;-31
2023/12/03 01:32:30;;;;;;;17.20;8.30;;;;;;;-128.00;-1.00;-1.00;100537;1279;1002827;-33
2023/12/03 01:34:56;;;;;;;;;;;;;;;-128.00;-1.00;-1.00;100556;1279;1003176;-33
2023/12/03 01:37:22;;;;;;;15.00;8.90;;;;;;;-128.00;-1.00;-1.00;100619;1278;1037521;-30
2023/12/03 01:39:48;;;;;;;;;;;;;;;-128.00;-1.00;-1.00;100644;1279;1004184;-34
2023/12/03 01:42:14;;;;;;;21.70;10.30;;;;;;;-128.00;-1.00;-1.00;100714;1279;1004238;-31
2023/12/03 01:44:39;;;;;;;;;;;;;;;-128.00;-1.00;-1.00;100702;1279;1058108;-32
2023/12/03 01:47:05;;;;;;;16.30;8.50;;;;;;;-128.00;-1.00;-1.00;100639;1283;1004097;-34
2023/12/03 01:49:31;;;;;;;12.90;6.10;;;;;;;-128.00;-1.00;-1.00;100691;1279;1003436;-32
2023/12/03 01:51:58;;;;;;;13.20;7.90;;;;;;;-128.00;-1.00;-1.00;100591;1279;1058972;-31
2023/12/03 02:33:03;;;;;;;15.90;9.40;;;;;;;-4.46;100.00;99114.07;103606;1279;613991;-34
2023/12/03 02:35:29;;;;;;;;;;;;;;;-4.02;100.00;99117.91;103836;1279;99971;-31
2023/12/03 02:37:55;;;;;;;13.80;8.10;;;;;;;-3.98;100.00;99120.78;103936;1280;59275;-32
2023/12/03 02:40:21;;;;;;;;;;;;;;;-3.97;100.00;99122.98;104032;1280;59288;-31
2023/12/03 02:42:47;;;;;;;15.50;8.40;;;;;;;-3.94;100.00;99123.83;104000;1280;59446;-32
2023/12/03 02:45:12;;;;;;;;;;;;;;;-3.85;100.00;99124.73;103922;1280;59333;-32
2023/12/03 02:47:38;;;;;;;16.00;8.40;;;;;;;-3.89;100.00;99125.41;104108;1280;59289;-30
2023/12/03 02:50:05;;;;;;;13.50;8.40;;;;;;;-3.87;100.00;99129.45;103941;1280;59197;-30
2023/12/03 02:52:31;;;;;;;14.20;8.70;;;;;;;-3.90;100.00;99127.00;103895;1281;59334;-33
2023/12/03 02:54:56;;;;;;;;;;;;;;;-4.01;100.00;99128.38;103856;1282;59279;-31
2023/12/03 02:57:22;;;;;;;15.80;7.70;;;;;;;-4.04;100.00;99132.24;104108;1284;59762;-33
2023/12/03 02:59:49;;;;;;;15.70;7.90;;;;;;;-3.96;100.00;99133.59;103972;1280;72217;-32
2023/12/03 03:02:14;;;;;;;;;;;;;;;-3.94;100.00;99138.89;103858;1280;59757;-36
2023/12/03 03:04:40;;;;;;;9.70;5.50;;;;;;;-4.03;100.00;99143.02;103933;1280;59836;-33
2023/12/03 03:07:07;;;;;;;11.40;6.80;;;;;;;-3.95;100.00;99143.65;103889;1280;59571;-30
2023/12/03 03:09:33;;;;;;;11.80;7.30;;;;;;;-3.88;100.00;99144.05;103825;1280;59627;-30
2023/12/03 03:11:59;;;;;;;13.00;8.60;;;;;;;-3.87;100.00;99146.58;104037;1281;59735;-33
2023/12/03 03:14:25;;;;;;;8.70;6.20;;;;;;;-3.82;100.00;99147.39;103801;1281;59707;-31
2023/12/03 03:16:51;;;;;;;17.00;6.40;;;;;;;-3.82;100.00;99152.30;103885;1281;59669;-33
2023/12/03 03:19:16;;;;;;;10.90;5.90;;;;;;;-3.91;100.00;99156.30;103826;1284;59754;-31
2023/12/03 03:21:42;;;;;;;;;;;;;;;-3.87;100.00;99161.58;104064;1282;59788;-33
2023/12/03 03:24:08;;;;;;;15.30;6.00;;;;;;;-3.91;100.00;99167.34;103996;1282;59754;-31
2023/12/03 03:26:34;;;;;;;14.10;6.60;;;;;;;-3.86;100.00;99168.39;103945;1284;59758;-31
2023/12/03 03:29:00;;;;;;;12.90;6.90;;;;;;;-3.78;100.00;99168.64;103936;1284;59795;-31
2023/12/03 03:31:26;;;;;;;9.30;5.80;;;;;;;-3.93;100.00;99167.48;103831;1284;59730;-34
2023/12/03 03:33:54;;;;;;;14.40;5.70;;;;;;;-3.78;100.00;99164.79;103963;1284;59765;-33
2023/12/03 03:36:20;;;;;;;10.60;6.00;;;;;;;-3.84;100.00;99165.79;103940;1281;72130;-31
2023/12/03 03:38:46;;;;;;;11.30;6.00;;;;;;;-3.93;100.00;99169.79;103756;1280;59747;-31
2023/12/03 03:41:12;;;;;;;;;;;;;;;-3.81;100.00;99164.16;103840;1284;59872;-33
2023/12/03 03:43:37;;;;;;;16.00;5.80;;;;;;;-3.72;100.00;99168.56;103914;1280;59770;-36
2023/12/03 03:46:03;;;;;;;10.10;7.30;;;;;;;-3.71;100.00;99172.68;103814;1280;59764;-30
2023/12/03 03:48:29;;;;;;;;;;;;;;;-3.78;100.00;99179.36;103872;1280;59672;-30
2023/12/03 03:50:55;;;;;;;14.50;7.30;;;;;;;-3.86;100.00;99183.45;104060;1280;59662;-33
2023/12/03 03:53:21;;;;;;;13.80;6.20;;;;;;;-3.77;100.00;99182.77;103904;1280;60226;-31
2023/12/03 03:55:48;;;;;;;11.70;5.20;;;;;;;-3.73;100.00;99182.45;103895;1280;59873;-32
2023/12/03 03:58:14;;;;;;;9.90;5.60;;;;;;;-3.77;100.00;99187.61;103987;1281;59720;-30
2023/12/03 04:00:40;;;;;;;;;;;;;;;-3.69;100.00;99192.15;103716;1284;59766;-31
2023/12/03 04:03:06;;;;;;;14.60;6.40;;;;;;;-3.65;100.00;99197.11;103803;1282;59757;-34
2023/12/03 04:05:32;;;;;;;11.10;7.10;;;;;;;-3.74;100.00;99201.77;103976;1282;59852;-31
2023/12/03 04:07:58;;;;;;;14.80;7.10;;;;;;;-3.72;100.00;99197.10;103796;1282;72414;-32
2023/12/03 04:10:23;;;;;;;11.30;6.40;;;;;;;-3.74;100.00;99203.40;103978;1284;59692;-33
2023/12/03 04:12:49;;;;;;;8.60;5.80;;;;;;;-3.69;100.00;99208.92;103787;1284;60208;-31
2023/12/03 04:15:16;;;;;;;13.80;7.40;;;;;;;-3.67;100.00;99210.76;103794;1280;59654;-34
2023/12/03 04:17:43;;;;;;;11.80;5.90;;;;;;;-3.69;100.00;99219.10;103846;1284;59734;-30
2023/12/03 04:20:10;;;;;;;12.80;7.40;;;;;;;-3.68;100.00;99221.98;103880;1282;59595;-32
2023/12/03 04:22:37;;;;;;;10.70;5.60;;;;;;;-3.67;100.00;99225.62;103851;1280;72419;-32
2023/12/03 04:25:03;;;;;;;14.80;7.20;;;;;;;-3.66;100.00;99231.45;103742;1284;59811;-32
2023/12/03 04:27:29;;;;;;;11.70;5.90;;;;;;;-3.76;100.00;99236.06;103747;1280;59638;-31
2023/12/03 04:29:55;;;;;;;12.00;5.80;;;;;;;-3.74;100.00;99237.11;103942;1280;59644;-34
2023/12/03 04:32:22;;;;;;;10.80;5.50;;;;;;;-3.67;100.00;99234.33;103823;1282;59694;-36
2023/12/03 04:34:48;;;;;;;12.00;7.80;;;;;;;-3.65;100.00;99236.16;103988;1280;59749;-34
2023/12/03 04:37:14;;;;;;;13.10;6.50;;;;;;;-3.42;100.00;99238.84;103811;1284;59758;-34
2023/12/03 04:39:42;;;;;;;;;;;;;;;-3.56;100.00;99237.42;104072;1282;59616;-32
2023/12/03 04:42:08;;;;;;;11.00;4.90;;;;;;;-3.49;100.00;99238.48;103915;1280;59530;-32
2023/12/03 04:44:34;;;;;;;12.00;6.70;;;;;;;-3.53;100.00;99237.91;103907;1282;59702;-32
2023/12/03 04:47:00;;;;;;;9.20;5.40;;;;;;;-3.49;100.00;99236.02;103922;1280;59731;-32
2023/12/03 04:49:27;;;;;;;13.30;6.60;;;;;;;-3.58;100.00;99235.81;103798;1280;59762;-34
2023/12/03 04:51:52;;;;;;;;;;;;;;;-3.54;100.00;99237.11;103801;1284;59768;-33
2023/12/03 04:54:18;;;;;;;9.80;6.10;;;;;;;-3.58;100.00;99235.80;103855;1280;59663;-33
2023/12/03 04:56:44;;;;;;;16.00;7.20;;;;;;;-3.54;100.00;99238.46;103877;1282;59705;-33
2023/12/03 04:59:10;;;;;;;10.90;6.00;;;;;;;-3.60;100.00;99240.09;103873;1280;59677;-34
2023/12/03 05:01:36;;;;;;;;;;;;;;;-3.55;100.00;99245.06;103913;1280;59690;-33
2023/12/03 05:04:02;;;;;;;10.60;6.40;;;;;;;-3.52;100.00;99242.00;103977;1281;61260;-30
2023/12/03 05:06:28;;;;;;;10.70;6.40;;;;;;;-3.46;100.00;99246.63;103917;1279;59760;-30
2023/12/03 05:08:54;;;;;;;10.20;5.30;;;;;;;-3.52;100.00;99249.20;103760;1280;59762;-32
2023/12/03 05:11:19;;;;;;;9.40;6.00;;;;;;;-3.51;100.00;99248.95;103860;1284;59698;-34
2023/12/03 05:13:45;;;;;;;12.70;6.90;;;;;;;-3.57;100.00;99255.36;103917;1280;59791;-30
2023/12/03 05:16:11;;;;;;;;;;;;;;;-3.51;100.00;99249.70;103976;1280;59759;-30
2023/12/03 05:18:37;;;;;;;10.60;5.90;;;;;;;-3.62;100.00;99250.05;103775;1282;59632;-31
2023/12/03 05:21:03;;;;;;;9.40;7.20;;;;;;;-3.66;100.00;99252.32;103963;1284;59963;-34
2023/12/03 05:23:29;;;;;;;10.70;5.90;;;;;;;-3.52;100.00;99254.65;103896;1281;59725;-34
2023/12/03 05:25:57;;;;;;;8.00;4.80;;;;;;;-3.50;100.00;99258.52;103754;1282;59758;-32
2023/12/03 05:28:23;;;;;;;10.80;6.50;;;;;;;-3.53;100.00;99261.00;103796;1282;59766;-32
2023/12/03 05:30:49;;;;;;;13.30;7.20;;;;;;;-3.53;100.00;99260.98;103850;1282;59702;-31
2023/12/03 05:33:15;;;;;;;;;;;;;;;-3.43;100.00;99267.08;103965;1282;59735;-31
2023/12/03 05:35:41;;;;;;;11.80;7.70;;;;;;;-3.58;100.00;99269.72;103841;1280;59610;-30
2023/12/03 05:38:07;;;;;;;9.00;5.60;;;;;;;-3.55;100.00;99268.27;103848;1280;59760;-31
2023/12/03 05:40:33;;;;;;;8.10;4.80;;;;;;;-3.71;100.00;99275.08;103876;1280;59638;-31
2023/12/03 05:42:59;;;;;;;;;;;;;;;-3.50;100.00;99277.88;103792;1282;59672;-31
2023/12/03 05:45:26;;;;;;;9.50;6.40;;;;;;;-3.49;100.00;99284.49;104010;1282;59664;-31
2023/12/03 05:47:51;;;;;;;;;;;;;;;-3.48;100.00;99288.98;103963;1284;59739;-33
2023/12/03 05:50:17;;;;;;;10.30;7.60;;;;;;;-3.55;100.00;99290.69;103855;1281;59858;-32
2023/12/03 05:52:43;;;;;;;;;;;;;;;-3.56;100.00;99295.69;103716;1280;59649;-32
2023/12/03 05:55:10;;;;;;;14.00;8.20;;;;;;;-3.46;100.00;99301.30;103782;1281;59753;-33
2023/12/03 05:57:36;;;;;;;;;;;;;;;-3.38;100.00;99304.33;103960;1282;59682;-31
2023/12/03 06:00:02;;;;;;;9.70;5.20;;;;;;;-3.29;100.00;99305.99;103791;1281;59792;-32
2023/12/03 06:02:28;;;;;;;13.20;6.20;;;;;;;-3.34;100.00;99304.94;103856;1284;59679;-30
2023/12/03 06:04:54;;;;;;;12.70;6.80;;;;;;;-3.32;100.00;99313.41;103982;1284;59645;-31
2023/12/03 06:07:20;;;;;;;9.70;5.30;;;;;;;-3.33;100.00;99314.48;103851;1284;59674;-33
2023/12/03 06:09:46;;;;;;;10.70;6.60;;;;;;;-3.31;100.00;99317.68;103776;1284;59756;-33
2023/12/03 06:12:12;;;;;;;12.30;7.00;;;;;;;-3.26;100.00;99319.94;103810;1280;59770;-33
2023/12/03 06:14:38;;;;;;;;;;;;;;;-3.16;100.00;99325.72;103818;1281;59758;-31
2023/12/03 06:17:04;;;;;;;11.00;7.50;;;;;;;-3.19;100.00;99326.44;103867;1280;59669;-34
2023/12/03 06:19:30;;;;;;;14.50;6.30;;;;;;;-3.17;100.00;99329.67;103830;1280;59753;-36
2023/12/03 06:21:57;;;;;;;12.20;7.20;;;;;;;-3.23;100.00;99332.39;103946;1281;59823;-32
2023/12/03 06:24:25;;;;;;;10.10;4.90;;;;;;;-3.11;100.00;99332.84;103825;1280;59859;-33
2023/12/03 06:26:51;;;;;;;13.60;7.20;;;;;;;-3.22;100.00;99332.96;103907;1280;59750;-33
2023/12/03 06:29:17;;;;;;;;;;;;;;;-3.19;100.00;99333.46;103629;1282;59747;-32
2023/12/03 06:31:43;;;;;;;13.60;7.20;;;;;;;-3.03;100.00;99338.46;103830;1282;60371;-34
2023/12/03 06:34:09;;;;;;;12.60;6.80;;;;;;;-3.04;100.00;99342.52;103939;1280;59804;-32
2023/12/03 06:36:35;;;;;;;10.70;6.80;;;;;;;-3.08;100.00;99344.57;103834;1280;60545;-31
2023/12/03 06:39:01;;;;;;;;;;;;;;;-3.06;100.00;99350.22;103851;1284;60546;-29
2023/12/03 06:41:27;;;;;;;12.50;7.50;;;;;;;-3.13;100.00;99350.55;103864;1280;60470;-32
2023/12/03 06:43:53;;;;;;;11.20;5.90;;;;;;;-3.13;100.00;99351.57;103885;1281;60574;-30
2023/12/03 06:46:19;;;;;;;;;;;;;;;-3.11;100.00;99360.23;103808;1280;60582;-36
2023/12/03 06:48:45;;;;;;;9.50;6.30;;;;;;;-2.95;100.00;99361.63;103825;1281;60480;-30
2023/12/03 06:51:11;;;;;;;10.40;6.00;;;;;;;-3.01;100.00;99362.94;103980;1283;60509;-30
2023/12/03 06:53:37;;;;;;;11.50;5.60;;;;;;;-2.94;100.00;99371.89;103929;1282;60563;-31
2023/12/03 06:56:04;;;;;;;;;;;;;;;-2.99;100.00;99375.61;103800;1282;72988;-33
2023/12/03 06:58:31;;;;;;;;;;;;;;;-2.93;100.00;99378.30;103815;1286;60566;-30
2023/12/03 07:00:58;;;;;;;11.10;5.40;;;;;;;-2.97;100.00;99381.27;104012;1282;60554;-32
2023/12/03 07:03:23;;;;;;;13.80;8.00;;;;;;;-2.85;100.00;99387.40;103826;1281;60432;-32
2023/12/03 07:05:50;;;;;;;12.40;6.20;;;;;;;-2.82;100.00;99391.54;103894;1281;60459;-31
2023/12/03 07:08:16;;;;;;;12.50;6.10;;;;;;;-2.93;100.00;99401.61;103909;1280;60682;-30
2023/12/03 07:10:41;;;;;;;12.30;7.50;;;;;;;-2.98;100.00;99398.49;103817;1280;60523;-34
2023/12/03 07:13:07;;;;;;;11.20;5.40;;;;;;;-2.89;100.00;99397.66;104016;1284;60564;-32
2023/12/03 07:15:33;;;;;;;11.40;6.10;;;;;;;-2.86;100.00;99406.02;103928;1284;60434;-32
2023/12/03 07:17:59;;;;;;;;;;;;;;;-2.95;100.00;99409.45;103744;1284;60485;-33
2023/12/03 07:20:25;;;;;;;15.60;10.60;;;;;;;-2.86;100.00;99409.67;103841;1282;60535;-31
2023/12/03 07:22:52;;;;;;;14.00;6.30;;;;;;;-2.73;100.00;99412.44;104041;1284;60533;-31
2023/12/03 07:25:18;;;;;;;13.50;6.20;;;;;;;-2.85;100.00;99416.63;103882;1284;60651;-31
2023/12/03 07:27:44;;;;;;;14.10;8.60;;;;;;;-2.84;100.00;99420.62;103860;1283;60620;-31
2023/12/03 07:30:10;;;;;;;;;;;;;;;-2.82;100.00;99425.21;103934;1282;60580;-31
2023/12/03 07:32:36;;;;;;;9.80;5.80;;;;;;;-2.72;100.00;99427.30;103980;1282;60525;-33
2023/12/03 07:35:02;;;;;;;;;;;;;;;-2.69;100.00;99430.36;103807;1282;69056;-33
2023/12/03 07:37:29;;;;;;;12.20;5.30;;;;;;;-2.69;100.00;99425.51;103836;1284;60490;-35
2023/12/03 07:39:55;;;;;;;12.80;6.70;;;;;;;-2.77;100.00;99431.67;103862;1284;60607;-33
2023/12/03 07:42:24;;;;;;;13.50;6.70;;;;;;;-2.74;100.00;99437.73;103934;1282;60586;-32
2023/12/03 07:44:50;;;;;;;10.70;6.90;;;;;;;-2.79;100.00;99438.47;103935;1281;60454;-31
2023/12/03 07:47:16;;;;;;;12.30;6.80;;;;;;;-2.69;100.00;99436.02;103938;1282;60526;-33
2023/12/03 07:49:43;;;;;;;13.30;5.90;;;;;;;-2.63;100.00;99448.48;103893;1282;61023;-33
2023/12/03 07:52:08;;;;;;;16.80;7.60;;;;;;;-2.58;100.00;99448.36;103909;1282;60431;-34
2023/12/03 07:54:34;;;;;;;10.60;6.90;;;;;;;-2.48;100.00;99450.09;103792;1280;60546;-31
2023/12/03 07:57:00;;;;;;;;;;;;;;;-2.57;100.00;99455.96;103778;1282;60548;-33
2023/12/03 07:59:26;;;;;;;14.30;7.80;;;;;;;-2.59;100.00;99462.77;103998;1281;61030;-34
2023/12/03 08:01:53;;;;;;;16.20;8.50;;;;;;;-2.48;100.00;99468.83;103956;1282;60528;-32
2023/12/03 08:04:19;;;;;;;15.40;9.40;;;;;;;-2.61;100.00;99470.81;103986;1282;60425;-30
2023/12/03 08:06:46;;;;;;;14.20;6.80;;;;;;;-2.56;100.00;99477.45;103717;1282;60517;-31
2023/12/03 08:09:12;;;;;;;16.40;7.80;;;;;;;-2.44;100.00;99483.63;103832;1284;60560;-31
2023/12/03 08:11:37;;;;;;;;;;;;;;;-2.55;100.00;99492.10;103939;1284;60563;-32
2023/12/03 08:14:03;;;;;;;15.20;7.40;;;;;;;-2.58;100.00;99496.34;103805;1284;60588;-32
2023/12/03 08:16:29;;;;;;;20.00;10.00;;;;;;;-2.60;100.00;99497.95;103820;1284;60548;-31
2023/12/03 08:18:55;;;;;;;46.90;20.90;;;;;;;-2.50;100.00;99498.91;103834;1284;60423;-31
2023/12/03 08:21:21;;;;;;;65.70;23.40;;;;;;;-2.41;100.00;99505.52;103832;1283;70016;-31
2023/12/03 08:23:47;;;;;;;86.70;24.90;;;;;;;-2.39;100.00;99510.06;103851;1282;60568;-33
2023/12/03 08:26:14;;;;;;;70.70;24.30;;;;;;;-2.49;100.00;99510.98;103853;1280;60779;-32
2023/12/03 08:28:40;;;;;;;33.00;13.70;;;;;;;-2.38;100.00;99514.56;103818;1284;73378;-33
2023/12/03 08:31:07;;;;;;;27.90;10.70;;;;;;;-2.42;100.00;99515.56;103820;1282;60474;-33
2023/12/03 08:33:36;;;;;;;45.00;16.40;;;;;;;-2.50;100.00;99520.51;103793;1280;72055;-33
2023/12/03 08:36:04;;;;;;;17.50;8.60;;;;;;;-2.52;100.00;99522.39;103776;1284;60499;-33
2023/12/03 08:38:30;;;;;;;55.10;22.50;;;;;;;-2.44;100.00;99528.15;103779;1282;60559;-31
2023/12/03 08:40:57;;;;;;;;;;;;;;;-2.38;100.00;99528.39;104010;1282;60439;-31
2023/12/03 08:43:24;;;;;;;29.00;17.90;;;;;;;-2.38;100.00;99538.38;103848;1281;74245;-29
2023/12/03 08:45:50;;;;;;;19.80;11.40;;;;;;;-2.34;100.00;99539.70;103888;1282;68012;-30
2023/12/03 08:48:16;;;;;;;18.60;9.00;;;;;;;-2.26;100.00;99540.68;103883;1284;60508;-30
2023/12/03 08:50:41;;;;;;;17.40;9.40;;;;;;;-2.43;100.00;99547.52;103843;1281;60548;-30
2023/12/03 08:53:08;;;;;;;15.00;7.80;;;;;;;-2.48;100.00;99552.07;103842;1284;60447;-33
2023/12/03 08:55:33;;;;;;;53.20;17.10;;;;;;;-2.34;100.00;99565.98;103794;1281;60490;-32
2023/12/03 08:58:01;;;;;;;49.60;17.90;;;;;;;-2.32;100.00;99565.30;103891;1280;60539;-30
2023/12/03 09:00:27;;;;;;;22.00;8.90;;;;;;;-2.37;100.00;99567.77;103916;1282;60572;-33
2023/12/03 09:02:53;;;;;;;47.80;13.60;;;;;;;-2.46;100.00;99577.02;103801;1282;62107;-31
2023/12/03 09:05:19;;;;;;;;;;;;;;;-2.36;100.00;99574.87;103767;1284;60461;-33
2023/12/03 09:07:45;;;;;;;69.90;19.10;;;;;;;-2.32;100.00;99576.35;103735;1286;60603;-34
2023/12/03 09:10:11;;;;;;;37.90;11.10;;;;;;;-2.18;100.00;99576.60;104044;1281;60465;-31
2023/12/03 09:12:37;;;;;;;70.10;15.80;;;;;;;-2.16;100.00;99575.55;103939;1280;60573;-30
2023/12/03 09:15:03;;;;;;;58.80;17.00;;;;;;;-2.16;100.00;99579.05;103805;1280;60569;-32
2023/12/03 09:17:29;;;;;;;;;;;;;;;-2.17;100.00;99579.11;103775;1285;60566;-30
2023/12/03 09:19:55;;;;;;;18.80;8.20;;;;;;;-2.16;100.00;99582.58;103748;1285;60624;-32
2023/12/03 09:22:20;;;;;;;25.00;9.10;;;;;;;-2.14;100.00;99588.19;103897;1284;60563;-32
2023/12/03 09:24:47;;;;;;;76.60;22.50;;;;;;;-2.12;100.00;99580.70;103939;1282;74277;-32
2023/12/03 09:27:12;;;;;;;;;;;;;;;-1.92;100.00;99594.31;103696;1282;60559;-32
2023/12/03 09:29:39;;;;;;;75.20;23.90;;;;;;;-2.04;100.00;99592.55;103679;1283;61229;-31
2023/12/03 09:32:05;;;;;;;36.50;11.80;;;;;;;-2.01;100.00;99594.80;103701;1282;60377;-32
2023/12/03 09:34:31;;;;;;;21.40;8.80;;;;;;;-2.13;100.00;99590.04;103690;1280;60521;-33
2023/12/03 09:36:57;;;;;;;31.30;10.90;;;;;;;-2.15;100.00;99587.09;103919;1280;60565;-34
2023/12/03 09:39:23;;;;;;;;;;;;;;;-2.09;100.00;99591.89;103903;1282;60451;-33
2023/12/03 09:41:50;;;;;;;22.80;9.70;;;;;;;-2.21;100.00;99602.06;103932;1282;60526;-31
2023/12/03 09:44:21;;;;;;;21.20;8.30;;;;;;;-2.20;100.00;99602.13;103783;1282;60472;-32
2023/12/03 09:46:49;;;;;;;14.40;7.80;;;;;;;-2.19;100.00;99597.69;103681;1286;60458;-31
2023/12/03 09:49:14;;;;;;;19.40;8.10;;;;;;;-2.20;100.00;99611.65;103673;1282;60520;-31
2023/12/03 09:51:40;;;;;;;19.50;8.80;;;;;;;-2.05;100.00;99609.48;103813;1282;60470;-30
2023/12/03 09:54:07;;;;;;;;;;;;;;;-1.95;100.00;99613.98;103813;1282;60515;-30
2023/12/03 09:56:33;;;;;;;19.00;8.20;;;;;;;-1.87;100.00;99615.56;103800;1282;60566;-31
2023/12/03 09:58:59;;;;;;;15.80;8.40;;;;;;;-1.82;100.00;99621.16;103777;1284;60527;-30
2023/12/03 10:01:25;;;;;;;15.20;8.00;;;;;;;-1.63;100.00;99627.16;103878;1284;60591;-32
2023/12/03 10:03:52;;;;;;;;;;;;;;;-1.50;100.00;99630.05;103864;1284;60569;-32
2023/12/03 10:06:21;;;;;;;12.90;6.70;;;;;;;-1.73;100.00;99621.19;103855;1284;60440;-34
2023/12/03 10:08:48;;;;;;;12.50;7.00;;;;;;;-1.91;100.00;99629.88;103716;1280;74184;-30
2023/12/03 10:11:16;;;;;;;16.70;6.60;;;;;;;-1.81;100.00;99626.88;103868;1282;68291;-32
2023/12/03 10:13:42;;;;;;;12.20;5.30;;;;;;;-1.82;100.00;99633.59;103795;1284;73127;-34
2023/12/03 10:16:10;;;;;;;11.90;6.10;;;;;;;-1.75;100.00;99635.92;104008;1282;60838;-32
2023/12/03 10:18:36;;;;;;;12.40;5.50;;;;;;;-1.65;100.00;99644.63;103812;1280;60666;-32
2023/12/03 10:21:06;;;;;;;10.80;5.70;;;;;;;-1.63;100.00;99643.80;103927;1282;60474;-32
2023/12/03 10:23:33;;;;;;;13.50;5.90;;;;;;;-1.24;99.13;99642.31;103875;1282;74093;-32
2023/12/03 10:26:15;;;;;;;10.40;5.30;;;;;;;-1.46;97.57;99651.34;103751;1283;68337;-33
2023/12/03 10:28:41;;;;;;;12.20;6.90;;;;;;;-1.86;97.93;99649.36;103804;1280;73115;-32
2023/12/03 10:31:13;;;;;;;9.20;4.80;;;;;;;-1.75;97.05;99652.92;103688;1282;60560;-34
2023/12/03 10:33:38;;;;;;;10.00;4.70;;;;;;;-2.09;97.54;99658.89;103798;1284;61198;-32
2023/12/03 10:36:05;;;;;;;10.30;5.30;;;;;;;-2.09;98.15;99655.70;103843;1282;61004;-33
2023/12/03 10:38:43;;;;;;;;;;;;;;;-1.98;98.19;99659.51;103805;1284;60645;-31
2023/12/03 10:41:10;;;;;;;13.30;6.50;;;;;;;-2.05;98.21;99661.77;103753;1280;68319;-32
2023/12/03 10:43:37;;;;;;;12.90;5.90;;;;;;;-1.88;97.39;99649.14;103931;1280;71917;-32
2023/12/03 10:46:11;;;;;;;13.10;6.40;;;;;;;-1.99;97.52;99660.07;103834;1284;60530;-30
2023/12/03 10:48:37;;;;;;;10.60;5.50;;;;;;;-1.96;97.73;99654.80;103872;1282;60562;-34
2023/12/03 10:51:06;;;;;;;;;;;;;;;-2.00;98.01;99657.21;103869;1280;60378;-33
2023/12/03 10:53:32;;;;;;;13.90;6.20;;;;;;;-2.09;98.53;99665.77;104075;1281;74725;-34
2023/12/03 10:56:01;;;;;;;14.20;7.40;;;;;;;-2.05;98.84;99670.92;103820;1282;68501;-33
2023/12/03 10:58:27;;;;;;;33.10;11.70;;;;;;;-1.97;98.54;99678.20;103862;1280;72362;-34
2023/12/03 11:01:00;;;;;;;19.90;7.60;;;;;;;-1.99;98.77;99681.20;103891;1284;60476;-33
2023/12/03 11:03:34;;;;;;;17.50;7.50;;;;;;;-2.07;99.45;99692.79;103834;1284;60601;-31
2023/12/03 11:06:01;;;;;;;16.60;7.40;;;;;;;-2.03;99.53;99697.97;103841;1282;60447;-33
2023/12/03 11:08:27;;;;;;;17.50;8.20;;;;;;;-1.99;99.08;99696.23;103814;1280;74134;-33
2023/12/03 11:10:53;;;;;;;30.50;9.60;;;;;;;-1.97;98.69;99701.01;103930;1284;60565;-32
2023/12/03 11:13:19;;;;;;;17.90;7.40;;;;;;;-1.89;98.51;99703.78;103785;1284;60672;-32
2023/12/03 11:15:44;;;;;;;15.30;6.30;;;;;;;-1.99;97.28;99707.70;103855;1281;60569;-32
2023/12/03 11:18:11;;;;;;;9.20;5.10;;;;;;;-2.16;96.18;99705.88;103913;1284;60577;-33
2023/12/03 11:20:38;;;;;;;15.40;6.90;;;;;;;-2.18;95.48;99716.88;103997;1282;60472;-31
2023/12/03 11:23:36;;;;;;;5.80;3.40;;;;;;;-2.16;95.63;99714.64;103806;1280;60556;-32
2023/12/03 11:26:14;;;;;;;9.00;4.80;;;;;;;-2.09;95.17;99719.58;104025;1282;68359;-33
2023/12/03 11:28:52;;;;;;;9.00;4.10;;;;;;;-2.01;94.41;99725.18;103879;1282;73167;-31
2023/12/03 11:31:18;;;;;;;9.40;5.00;;;;;;;-2.14;95.82;99730.29;103848;1284;60531;-33
2023/12/03 11:33:51;;;;;;;8.00;4.70;;;;;;;-1.82;96.06;99725.92;103980;1284;60552;-32
2023/12/03 11:36:17;;;;;;;7.40;3.40;;;;;;;-1.92;95.49;99727.14;103929;1283;60423;-32
2023/12/03 11:38:43;;;;;;;;;;;;;;;-1.84;95.85;99730.45;104006;1282;60479;-34
2023/12/03 11:41:09;;;;;;;8.60;4.80;;;;;;;-1.86;95.45;99734.84;103913;1284;60556;-34
2023/12/03 11:43:35;;;;;;;9.70;5.20;;;;;;;-1.85;95.47;99731.27;103960;1280;60568;-32
2023/12/03 11:46:01;;;;;;;;;;;;;;;-1.92;95.41;99741.20;103968;1282;60480;-33
2023/12/03 11:48:27;;;;;;;10.40;4.80;;;;;;;-2.00;94.97;99740.55;103897;1281;60586;-35
2023/12/03 11:50:54;;;;;;;9.50;4.80;;;;;;;-2.00;95.10;99743.70;103847;1282;60440;-31
2023/12/03 11:53:26;;;;;;;9.90;4.70;;;;;;;-2.02;95.93;99750.48;103744;1282;60623;-31
2023/12/03 11:55:52;;;;;;;9.30;4.20;;;;;;;-1.83;96.33;99748.13;103984;1282;69471;-34
2023/12/03 11:58:22;;;;;;;10.90;4.80;;;;;;;-1.65;95.61;99747.52;103916;1284;60570;-32